• Join FlightAware (Why Join?)
  • Login
  • US Flag 
12:34AM EDT


 

Airport Tracker/Info


-or-


 

Live Flight TrackerFlight Track Log ✈ JIA4789 ✈ 10-Dec-2013 ✈ KDCA - KBNA

Flight Track Log - Related Links

Times and Time Zones

All times are in EST time to prevent confusion due to time zone crossing. See the JIA4789 flight status page for this flight to view local times or setup timezone preferences in your user account.

Time Position Orientation Groundspeed Altitude Reporting Facility
EST Latitude Longitude Course Direction KTS MPH feet Rate Location/Type
04:27PM 38.8667 -77.0500 270° West 155 178 1,500  Level Potomac TRACON
04:28PM 38.9000 -77.0833 322° Northwest 180 207 3,700 2,640 Climbing Potomac TRACON
04:30PM 38.9739 -77.1778 315° West 227 261 8,300 2,520 Climbing Washington Center
04:30PM 38.7447 -77.4939 270° West  Level Estimated
04:31PM 38.7651 -77.6101 283° West  Level FlightAware Approximate
04:31PM 38.9686 -77.2522 265° West 200 230 10,500  Level Washington Center
04:32PM 38.7374 -77.7237 270° West  Level Estimated
04:32PM 38.9592 -77.3347 262° West 214 246 12,200  Level Washington Center
04:32PM 38.9475 -77.4253 261° West 247 284 14,000 2,220 Climbing Washington Center
04:34PM 38.9375 -77.5158 262° West 263 303 16,700 1,860 Climbing Washington Center
04:35PM 38.9300 -77.6008 264° West 253 291 17,800 1,860 Climbing Washington Center
04:35PM 38.9203 -77.6781 261° West 231 266 20,400 1,920 Climbing Washington Center
04:37PM 38.9106 -77.7525 260° West 215 247 21,700 780 Climbing Washington Center
04:37PM 38.9031 -77.8244 262° West 222 255 22,000 120 Climbing Washington Center
04:38PM 38.8911 -77.9119 260° West 238 274 22,000  Level Washington Center
04:39PM 38.8811 -77.9997 262° West 244 281 22,000  Level Washington Center
04:41PM 38.8689 -78.0844 260° West 249 287 22,000  Level Washington Center
04:41PM 38.8586 -78.1775 262° West 255 293 22,000  Level Washington Center
04:43PM 38.8544 -78.2733 267° West 265 305 22,000  Level Washington Center
04:44PM 38.8519 -78.3744 268° West 276 318 22,000  Level Washington Center
04:45PM 38.8372 -78.4725 259° West 282 325 22,000  Level Washington Center
04:46PM 38.8203 -78.5678 257° West 282 325 22,000  Level Washington Center
04:46PM 38.8053 -78.6686 259° West 282 325 22,000  Level Washington Center
04:47PM 38.7903 -78.7664 259° West 282 325 22,000  Level Washington Center
04:49PM 38.7728 -78.8669 257° West 288 331 22,000 540 Level Washington Center
04:50PM 38.7556 -78.9647 257° West 288 331 23,200 960 Climbing Washington Center
04:50PM 38.7425 -79.0597 260° West 288 331 24,000 360 Climbing Washington Center
04:52PM 38.7311 -79.1631 262° West 288 331 24,000  Level Washington Center
04:53PM 38.7258 -79.2719 266° West 300 345 24,000  Level Washington Center
04:54PM 38.7142 -79.3806 262° West 311 358 24,000  Level Washington Center
04:54PM 38.7017 -79.5050 263° West 316 364 24,000  Level Washington Center
04:56PM 38.6897 -79.6158 262° West 316 364 24,000  Level Washington Center
04:57PM 38.6775 -79.7297 262° West 321 369 24,000  Level Washington Center
04:57PM 38.6653 -79.8433 262° West 321 369 24,000  Level Washington Center
04:58PM 38.6553 -79.9064 259° West 319 367 24,000  Level Indianapolis Center
04:59PM 38.6439 -80.0186 263° West 318 366 24,000  Level Indianapolis Center
05:00PM 38.6297 -80.1542 262° West 320 368 24,000  Level Indianapolis Center
05:01PM 38.6164 -80.2675 261° West 321 369 24,000  Level Indianapolis Center
05:02PM 38.6044 -80.3803 262° West 321 369 24,000  Level Indianapolis Center
05:03PM 38.5931 -80.4947 263° West 324 373 24,000  Level Indianapolis Center
05:04PM 38.5789 -80.6100 261° West 327 376 24,000  Level Indianapolis Center
05:06PM 38.5575 -80.7231 256° West 326 375 24,000  Level Indianapolis Center
05:07PM 38.5358 -80.8372 256° West 329 379 24,000  Level Indianapolis Center
05:08PM 38.5092 -80.9736 256° West 329 379 24,000  Level Indianapolis Center
05:09PM 38.4864 -81.0881 256° West 329 379 24,000  Level Indianapolis Center
05:10PM 38.4642 -81.2028 256° West 331 381 24,000  Level Indianapolis Center
05:11PM 38.4403 -81.3178 255° West 331 381 24,000  Level Indianapolis Center
05:12PM 38.4178 -81.4331 256° West 331 381 24,000  Level Indianapolis Center
05:13PM 38.3953 -81.5494 256° West 334 384 24,000  Level Indianapolis Center
05:14PM 38.3717 -81.6656 255° West 334 384 24,000  Level Indianapolis Center
05:15PM 38.3472 -81.7817 255° West 336 387 24,000  Level Indianapolis Center
05:16PM 38.3092 -81.9175 250° West 339 390 24,000  Level Indianapolis Center
05:17PM 38.2769 -82.0306 250° West 339 390 24,000  Level Indianapolis Center
05:18PM 38.2458 -82.1456 251° West 342 394 24,000  Level Indianapolis Center
05:19PM 38.2122 -82.2589 249° West 342 394 24,000  Level Indianapolis Center
05:20PM 38.1797 -82.3739 250° West 344 396 24,000  Level Indianapolis Center
05:21PM 38.1469 -82.4892 250° West 346 398 24,000  Level Indianapolis Center
05:22PM 38.1122 -82.6089 250° West 345 397 24,000  Level Indianapolis Center
05:23PM 38.0539 -82.7336 239° Southwest 352 405 24,000  Level Indianapolis Center
05:24PM 38.0042 -82.8411 240° Southwest 353 406 24,000  Level Indianapolis Center
05:25PM 37.9539 -82.9472 239° Southwest 353 406 24,000  Level Indianapolis Center
05:26PM 37.9036 -83.0558 240° Southwest 356 410 24,000  Level Indianapolis Center
05:27PM 37.8531 -83.1622 239° Southwest 355 409 24,000  Level Indianapolis Center
05:28PM 37.8022 -83.2697 239° Southwest 355 409 24,000  Level Indianapolis Center
05:29PM 37.7422 -83.3947 239° Southwest 356 410 24,000  Level Indianapolis Center
05:30PM 37.6911 -83.5014 239° Southwest 355 409 24,000  Level Indianapolis Center
05:31PM 37.6403 -83.6083 239° Southwest 354 407 24,000  Level Indianapolis Center
05:32PM 37.5881 -83.7139 238° Southwest 354 407 24,000  Level Indianapolis Center
05:33PM 37.5283 -83.8392 239° Southwest 356 410 24,000  Level Indianapolis Center
05:34PM 37.4761 -83.9464 238° Southwest 357 411 24,000  Level Indianapolis Center
05:36PM 37.4236 -84.0539 238° Southwest 359 413 24,000  Level Indianapolis Center
05:37PM 37.3711 -84.1606 238° Southwest 360 414 24,000  Level Indianapolis Center
05:38PM 37.3194 -84.2681 239° Southwest 360 414 24,000 -240 Level Indianapolis Center
05:39PM 37.2561 -84.3922 237° Southwest 364 419 23,600 -480 Descending Indianapolis Center
05:40PM 37.2042 -84.4994 239° Southwest 360 414 23,100 -540 Descending Indianapolis Center
05:41PM 37.1517 -84.6053 238° Southwest 357 411 22,600 -540 Descending Indianapolis Center
05:42PM 37.0983 -84.7133 238° Southwest 362 417 22,100 -300 Descending Indianapolis Center
05:43PM 37.0442 -84.8214 238° Southwest 365 420 22,000 -60 Descending Indianapolis Center
05:44PM 36.9914 -84.9278 238° Southwest 359 413 22,000  Level Indianapolis Center
05:45PM 36.9386 -85.0314 238° Southwest 355 409 22,000  Level Indianapolis Center
05:46PM 36.8750 -85.1569 238° Southwest 356 410 22,000  Level Indianapolis Center
05:47PM 36.8222 -85.2625 238° Southwest 359 413 22,000  Level Indianapolis Center
05:48PM 36.7692 -85.3664 238° Southwest 357 411 22,000  Level Indianapolis Center
05:49PM 36.7178 -85.4714 239° Southwest 356 410 22,000  Level Indianapolis Center
05:50PM 36.6678 -85.5783 240° Southwest 357 411 22,000 -60 Level Indianapolis Center
05:51PM 36.6069 -85.7061 239° Southwest 359 413 21,900 -1,320 Descending Indianapolis Center
05:52PM 36.5578 -85.8122 240° Southwest 355 409 19,300 -2,280 Descending Indianapolis Center
05:53PM 36.5119 -85.9042 238° Southwest 355 409 17,200 -2,580 Descending Indianapolis Center
05:54PM 36.4556 -86.0239 240° Southwest 342 394 14,000 -2,940 Descending Indianapolis Center
05:55PM 36.4067 -86.1258 239° Southwest 339 390 11,200 -1,560 Descending Indianapolis Center
05:56PM 36.3575 -86.2283 239° Southwest 343 395 10,800 -1,020 Descending Indianapolis Center
05:57PM 36.3200 -86.3061 239° Southwest 274 315 9,200 -1,680 Descending Indianapolis Center
05:58PM 36.2825 -86.3831 239° Southwest 261 300 7,400 -1,740 Descending Indianapolis Center
05:59PM 36.2450 -86.4606 239° Southwest 258 297 5,700 -1,200 Descending Indianapolis Center
06:00PM 36.2086 -86.5378 240° Southwest 257 296 5,000 -360 Descending Indianapolis Center
06:01PM 36.1403 -86.5681 200° South 268 308 5,000 -1,080 Level Indianapolis Center
06:03PM 36.0453 -86.5983 194° South 260 299 2,600 -1,080 Descending Memphis Center
06:04PM 36.0042 -86.6408 220° Southwest 221 254 2,500 -180 Descending Memphis Center
06:05PM 36.0206 -86.6939 291° West 175 201 2,300 -480 Descending Memphis Center
06:06PM 36.0697 -86.6853 North 157 181 1,600 -780 Descending Memphis Center
06:07PM 36.1067 -86.6706 18° North 146 168 800 -480 Descending Memphis Center
06:08PM 36.1419 -86.6564 18° North 144 166 700 -120 Descending Memphis Center